createdAt,value
2022-09-24T00:01:17.569Z,38.38
2022-09-24T00:03:50.069Z,40.13
2022-09-24T00:06:20.352Z,40.47
2022-09-24T00:08:49.349Z,39.28
2022-09-24T00:11:19.708Z,38.35
2022-09-24T00:13:47.178Z,33.78
2022-09-24T00:16:16.595Z,37.38
2022-09-24T00:18:43.491Z,36.70
2022-09-24T00:21:25.735Z,35.92
2022-09-24T00:23:54.536Z,33.92
2022-09-24T00:26:40.719Z,31.23
2022-09-24T00:29:09.306Z,35.53
2022-09-24T00:31:36.760Z,34.00
2022-09-24T00:34:04.088Z,35.67
2022-09-24T00:36:31.815Z,30.00
2022-09-24T00:38:59.726Z,33.33
2022-09-24T00:41:30.031Z,27.83
2022-09-24T00:43:57.495Z,34.15
2022-09-24T00:46:31.230Z,32.28
2022-09-24T00:49:12.704Z,33.47
2022-09-24T00:51:41.548Z,34.88
2022-09-24T00:54:10.437Z,29.75
2022-09-24T00:56:45.896Z,33.22
2022-09-24T00:59:19.804Z,34.03
2022-09-24T01:01:48.479Z,33.08
2022-09-24T01:04:18.171Z,37.50
2022-09-24T01:06:45.602Z,32.42
2022-09-24T01:09:12.689Z,29.85
2022-09-24T01:12:00.996Z,29.55
2022-09-24T01:14:46.735Z,29.10
2022-09-24T01:17:23.242Z,30.35
2022-09-24T01:19:52.868Z,31.60
2022-09-24T01:22:38.455Z,33.88
2022-09-24T01:25:17.153Z,28.60
2022-09-24T01:28:35.016Z,32.25
2022-09-24T01:31:07.223Z,29.17
2022-09-24T01:33:36.315Z,30.35
2022-09-24T01:36:09.365Z,30.98
2022-09-24T01:38:44.273Z,28.38
2022-09-24T01:41:12.907Z,30.30
2022-09-24T01:43:40.061Z,33.05
2022-09-24T01:46:07.633Z,30.35
2022-09-24T01:48:38.202Z,32.05
2022-09-24T01:51:38.065Z,37.88
2022-09-24T01:54:12.174Z,33.08
2022-09-24T01:56:50.340Z,33.90
2022-09-24T01:59:20.877Z,33.50
2022-09-24T02:01:59.879Z,37.55
2022-09-24T02:04:28.176Z,35.60
2022-09-24T02:07:06.208Z,30.92
2022-09-24T02:09:38.859Z,38.83
2022-09-24T02:12:12.243Z,29.40
2022-09-24T02:14:48.211Z,37.17
2022-09-24T02:17:16.291Z,24.40
2022-09-24T02:19:43.767Z,33.17
2022-09-24T02:22:12.619Z,41.35
2022-09-24T02:24:49.222Z,38.05
2022-09-24T02:27:16.851Z,42.58
2022-09-24T02:29:44.400Z,42.28
2022-09-24T02:32:13.987Z,39.55
2022-09-24T02:34:43.185Z,40.20
2022-09-24T02:37:12.554Z,30.45
2022-09-24T02:39:39.819Z,41.17
2022-09-24T02:42:07.668Z,38.35
2022-09-24T02:44:36.207Z,40.35
2022-09-24T02:47:03.975Z,33.67
2022-09-24T02:49:31.250Z,37.38
2022-09-24T02:51:58.515Z,38.78
2022-09-24T02:54:28.495Z,33.55
2022-09-24T02:56:58.160Z,39.13
2022-09-24T02:59:24.843Z,38.17
2022-09-24T03:01:52.098Z,33.03
2022-09-24T03:04:19.770Z,35.90
2022-09-24T03:06:47.947Z,38.55
2022-09-24T03:09:15.089Z,41.53
2022-09-24T03:11:41.960Z,40.22
2022-09-24T03:14:08.849Z,46.75
2022-09-24T03:16:36.065Z,45.13
2022-09-24T03:19:03.391Z,43.85
2022-09-24T03:21:30.657Z,43.30
2022-09-24T03:23:57.783Z,41.47
2022-09-24T03:26:25.190Z,47.50
2022-09-24T03:28:52.251Z,44.13
2022-09-24T03:31:19.622Z,48.08
2022-09-24T03:33:48.979Z,48.00
2022-09-24T03:36:16.392Z,53.72
2022-09-24T03:38:45.523Z,40.60
2022-09-24T03:41:13.229Z,38.10
2022-09-24T03:43:40.411Z,42.97
2022-09-24T03:46:08.143Z,49.83
2022-09-24T03:48:36.371Z,48.88
2022-09-24T03:51:05.332Z,50.90
2022-09-24T03:53:33.072Z,49.85
2022-09-24T03:56:02.467Z,47.05
2022-09-24T03:58:31.643Z,41.47
2022-09-24T04:00:59.010Z,47.67
2022-09-24T04:03:26.184Z,50.25
2022-09-24T04:05:53.353Z,48.55
2022-09-24T04:08:21.010Z,46.13
2022-09-24T04:10:48.928Z,56.65
2022-09-24T04:13:16.794Z,50.65
2022-09-24T04:15:44.242Z,46.78
2022-09-24T04:18:11.433Z,49.22
2022-09-24T04:20:38.568Z,47.75
2022-09-24T04:23:06.037Z,54.05
2022-09-24T04:25:36.266Z,51.00
2022-09-24T04:30:33.332Z,51.00
2022-09-24T04:33:01.152Z,53.72
2022-09-24T04:35:29.829Z,55.08
2022-09-24T04:37:57.478Z,55.70
2022-09-24T04:40:24.909Z,56.03
2022-09-24T04:42:52.586Z,50.17
2022-09-24T04:45:20.849Z,58.13
2022-09-24T04:47:52.564Z,54.03
2022-09-24T04:50:20.460Z,55.40
2022-09-24T04:52:53.264Z,53.35
2022-09-24T04:55:22.635Z,54.95
2022-09-24T04:57:50.323Z,58.83
2022-09-24T05:00:22.588Z,56.33
2022-09-24T05:02:56.465Z,55.22
2022-09-24T05:05:23.635Z,60.10
2022-09-24T05:07:51.549Z,55.90
2022-09-24T05:10:18.681Z,55.67
2022-09-24T05:12:45.448Z,59.53
2022-09-24T05:15:12.618Z,58.25
2022-09-24T05:17:40.058Z,54.67
2022-09-24T05:20:08.310Z,53.30
2022-09-24T05:22:37.409Z,65.50
2022-09-24T05:25:04.640Z,66.32
2022-09-24T05:27:31.749Z,63.75
2022-09-24T05:30:00.632Z,67.53
2022-09-24T05:32:29.829Z,82.05
2022-09-24T05:34:56.892Z,63.28
2022-09-24T05:37:24.043Z,63.20
2022-09-24T05:39:51.153Z,65.72
2022-09-24T05:42:18.271Z,65.45
2022-09-24T05:44:48.642Z,64.35
2022-09-24T05:47:19.100Z,60.75
2022-09-24T05:49:45.740Z,61.03
2022-09-24T05:52:13.131Z,56.00
2022-09-24T05:54:39.749Z,65.45
2022-09-24T05:57:06.803Z,61.78
2022-09-24T05:59:33.911Z,65.20
2022-09-24T06:02:01.207Z,58.58
2022-09-24T06:04:27.897Z,64.55
2022-09-24T06:06:56.035Z,68.45
2022-09-24T06:09:23.126Z,54.15
2022-09-24T06:11:53.033Z,61.90
2022-09-24T06:14:20.099Z,70.72
2022-09-24T06:16:47.151Z,67.68
2022-09-24T06:19:14.385Z,55.72
2022-09-24T06:21:41.293Z,53.63
2022-09-24T06:24:08.113Z,49.72
2022-09-24T06:26:36.243Z,55.28
2022-09-24T06:29:05.181Z,64.18
2022-09-24T06:31:32.704Z,53.28
2022-09-24T06:34:00.447Z,52.05
2022-09-24T06:36:27.253Z,50.38
2022-09-24T06:38:54.504Z,45.85
2022-09-24T06:41:22.497Z,47.42
2022-09-24T06:43:49.722Z,57.10
2022-09-24T06:48:48.915Z,55.13
2022-09-24T06:51:16.050Z,62.30
2022-09-24T06:53:42.912Z,50.08
2022-09-24T06:56:10.244Z,69.07
2022-09-24T06:58:37.599Z,45.63
2022-09-24T07:01:05.123Z,45.95
2022-09-24T07:03:33.292Z,54.05
2022-09-24T07:06:01.655Z,52.05
2022-09-24T07:08:28.939Z,52.30
2022-09-24T07:10:56.167Z,51.08
2022-09-24T07:13:23.066Z,56.95
2022-09-24T07:15:51.120Z,54.13
2022-09-24T07:18:19.077Z,46.83
2022-09-24T07:20:55.086Z,53.47
2022-09-24T07:23:22.406Z,54.60
2022-09-24T07:25:53.461Z,52.97
2022-09-24T07:28:20.732Z,47.83
2022-09-24T07:30:47.949Z,46.65
2022-09-24T07:33:15.163Z,67.72
2022-09-24T07:35:42.000Z,46.33
2022-09-24T07:38:12.258Z,56.00
2022-09-24T07:40:43.919Z,52.22
2022-09-24T07:43:13.517Z,65.30
2022-09-24T07:45:41.281Z,47.47
2022-09-24T07:48:15.636Z,54.20
2022-09-24T07:50:42.986Z,52.78
2022-09-24T07:53:15.139Z,51.22
2022-09-24T07:55:42.401Z,51.65
2022-09-24T07:58:13.871Z,51.17
2022-09-24T08:00:41.486Z,44.20
2022-09-24T08:03:11.794Z,42.50
2022-09-24T08:05:45.443Z,46.15
2022-09-24T08:08:13.632Z,37.03
2022-09-24T08:10:42.094Z,40.15
2022-09-24T08:13:09.303Z,41.15
2022-09-24T08:15:36.618Z,41.72
2022-09-24T08:18:04.621Z,43.58
2022-09-24T08:20:32.956Z,40.75
2022-09-24T08:23:04.433Z,39.20
2022-09-24T08:25:31.855Z,38.78
2022-09-24T08:28:05.995Z,34.78
2022-09-24T08:30:35.207Z,36.85
2022-09-24T08:33:05.464Z,35.30
2022-09-24T08:35:34.181Z,37.08
2022-09-24T08:38:02.197Z,38.17
2022-09-24T08:40:31.921Z,38.78
2022-09-24T08:43:16.832Z,35.55
2022-09-24T08:46:08.251Z,33.00
2022-09-24T08:48:38.187Z,31.92
2022-09-24T08:51:12.463Z,33.65
2022-09-24T08:53:59.847Z,32.47
2022-09-24T08:56:41.443Z,34.42
2022-09-24T08:59:31.991Z,25.63
2022-09-24T09:02:02.350Z,26.80
2022-09-24T09:04:42.064Z,27.50
2022-09-24T09:07:22.743Z,29.35
2022-09-24T09:09:56.541Z,26.73
2022-09-24T09:12:43.075Z,25.05
2022-09-24T09:15:33.880Z,23.35
2022-09-24T09:18:16.500Z,21.08
2022-09-24T09:20:49.155Z,19.25
2022-09-24T09:23:19.914Z,16.98
2022-09-24T09:25:54.559Z,19.45
2022-09-24T09:28:21.990Z,16.67
2022-09-24T09:31:10.426Z,17.67
2022-09-24T09:33:46.401Z,17.65
2022-09-24T09:37:00.937Z,14.18
2022-09-24T09:39:45.966Z,14.90
2022-09-24T09:42:40.271Z,14.43
2022-09-24T09:45:40.040Z,16.42
2022-09-24T09:48:12.808Z,11.88
2022-09-24T09:50:49.860Z,13.25
2022-09-24T09:53:23.348Z,12.48
2022-09-24T09:55:56.348Z,12.82
2022-09-24T09:58:25.961Z,15.00
2022-09-24T10:01:02.273Z,12.85
2022-09-24T10:06:06.572Z,12.95
2022-09-24T10:08:33.801Z,12.38
2022-09-24T10:11:03.401Z,14.43
2022-09-24T10:13:33.281Z,13.35
2022-09-24T10:16:04.409Z,11.30
2022-09-24T10:18:42.682Z,12.30
2022-09-24T10:21:12.662Z,12.43
2022-09-24T10:23:40.475Z,12.23
2022-09-24T10:26:08.015Z,12.32
2022-09-24T10:29:06.549Z,11.68
2022-09-24T10:31:38.765Z,12.70
2022-09-24T10:34:21.453Z,11.77
2022-09-24T10:36:53.580Z,12.27
2022-09-24T10:39:21.526Z,11.18
2022-09-24T10:41:53.641Z,10.88
2022-09-24T10:44:21.537Z,12.70
2022-09-24T10:46:51.155Z,11.73
2022-09-24T10:49:29.208Z,14.25
2022-09-24T10:52:33.452Z,15.48
2022-09-24T10:55:28.384Z,15.40
2022-09-24T11:01:03.585Z,16.75
2022-09-24T11:03:41.461Z,13.30
2022-09-24T11:06:26.502Z,14.25
2022-09-24T11:09:01.848Z,13.88
2022-09-24T11:11:33.316Z,14.85
2022-09-24T11:14:09.183Z,13.88
2022-09-24T11:17:18.887Z,10.77
2022-09-24T11:20:07.509Z,15.73
2022-09-24T11:22:52.861Z,16.00
2022-09-24T11:25:31.539Z,14.63
2022-09-24T11:28:37.325Z,15.40
2022-09-24T11:31:16.054Z,14.35
2022-09-24T11:34:20.658Z,14.52
2022-09-24T11:36:47.828Z,18.55
2022-09-24T11:39:40.085Z,14.63
2022-09-24T11:42:29.183Z,13.80
2022-09-24T11:45:20.862Z,15.35
2022-09-24T11:47:56.737Z,13.93
2022-09-24T11:50:53.186Z,14.20
2022-09-24T11:53:55.372Z,12.93
2022-09-24T11:56:33.533Z,13.32
2022-09-24T11:59:21.350Z,14.75
2022-09-24T12:02:01.038Z,11.85
2022-09-24T12:05:08.712Z,14.93
2022-09-24T12:07:35.907Z,10.48
2022-09-24T12:10:22.153Z,12.40
2022-09-24T12:12:51.386Z,12.90
2022-09-24T12:15:30.808Z,13.25
2022-09-24T12:18:16.184Z,11.80
2022-09-24T12:21:02.665Z,9.80
2022-09-24T12:23:35.368Z,12.23
2022-09-24T12:26:05.795Z,10.40
2022-09-24T12:29:19.979Z,14.57
2022-09-24T12:32:24.987Z,10.75
2022-09-24T12:35:15.500Z,11.55
2022-09-24T12:37:45.504Z,9.13
2022-09-24T12:40:12.368Z,14.00
2022-09-24T12:42:50.554Z,11.45
2022-09-24T12:45:21.298Z,8.93
2022-09-24T12:47:57.765Z,11.68
2022-09-24T12:50:27.389Z,10.02
2022-09-24T12:52:57.991Z,13.43
2022-09-24T12:55:30.169Z,12.40
2022-09-24T12:58:02.038Z,8.88
2022-09-24T13:00:48.563Z,13.15
2022-09-24T13:03:36.963Z,10.18
2022-09-24T13:06:20.416Z,7.85
2022-09-24T13:08:47.665Z,10.30
2022-09-24T13:11:36.703Z,14.65
2022-09-24T13:14:22.599Z,14.75
2022-09-24T13:16:56.738Z,10.30
2022-09-24T13:19:44.980Z,9.35
2022-09-24T13:22:26.873Z,11.23
2022-09-24T13:25:07.685Z,11.30
2022-09-24T13:27:39.654Z,11.90
2022-09-24T13:30:29.386Z,12.40
2022-09-24T13:33:09.559Z,11.68
2022-09-24T13:35:50.100Z,13.20
2022-09-24T13:38:28.433Z,14.52
2022-09-24T13:41:04.449Z,17.58
2022-09-24T13:43:50.081Z,15.95
2022-09-24T13:46:19.562Z,11.93
2022-09-24T13:48:59.780Z,15.38
2022-09-24T13:51:31.313Z,13.15
2022-09-24T13:53:58.457Z,9.90
2022-09-24T13:56:26.361Z,18.88
2022-09-24T13:59:04.956Z,13.57
2022-09-24T14:01:38.929Z,13.40
2022-09-24T14:04:18.611Z,10.30
2022-09-24T14:06:51.499Z,14.50
2022-09-24T14:09:36.038Z,12.85
2022-09-24T14:12:15.267Z,11.73
2022-09-24T14:14:47.443Z,13.73
2022-09-24T14:17:15.497Z,15.38
2022-09-24T14:19:43.210Z,11.73
2022-09-24T14:22:24.005Z,8.70
2022-09-24T14:25:15.183Z,13.13
2022-09-24T14:27:45.249Z,14.15
2022-09-24T14:30:24.283Z,13.27
2022-09-24T14:32:56.333Z,9.40
2022-09-24T14:35:31.114Z,8.55
2022-09-24T14:38:00.706Z,10.30
2022-09-24T14:40:28.870Z,9.35
2022-09-24T14:43:02.712Z,7.57
2022-09-24T14:45:40.479Z,13.35
2022-09-24T14:48:24.484Z,12.07
2022-09-24T14:50:51.675Z,9.98
2022-09-24T14:53:25.895Z,10.75
2022-09-24T14:55:53.148Z,13.15
2022-09-24T14:58:36.307Z,8.50
2022-09-24T15:01:17.693Z,13.50
2022-09-24T15:04:04.190Z,7.65
2022-09-24T15:06:33.563Z,7.47
2022-09-24T15:09:02.178Z,10.68
2022-09-24T15:11:34.225Z,7.97
2022-09-24T15:14:27.409Z,8.68
2022-09-24T15:16:55.237Z,12.95
2022-09-24T15:19:23.182Z,8.13
2022-09-24T15:21:52.665Z,11.60
2022-09-24T15:24:20.593Z,10.57
2022-09-24T15:27:00.851Z,7.47
2022-09-24T15:29:28.087Z,18.77
2022-09-24T15:31:56.932Z,12.05
2022-09-24T15:34:24.936Z,9.75
2022-09-24T15:37:01.773Z,10.32
2022-09-24T15:39:29.175Z,8.70
2022-09-24T15:41:56.407Z,8.65
2022-09-24T15:44:31.270Z,10.73
2022-09-24T15:47:01.045Z,9.50
2022-09-24T15:49:28.207Z,11.40
2022-09-24T15:52:05.771Z,9.25
2022-09-24T15:54:32.957Z,8.35
2022-09-24T15:57:00.716Z,11.93
2022-09-24T15:59:28.017Z,9.65
2022-09-24T16:02:00.327Z,8.73
2022-09-24T16:04:27.539Z,8.95
2022-09-24T16:06:54.743Z,10.10
2022-09-24T16:09:21.516Z,8.57
2022-09-24T16:11:51.625Z,10.77
2022-09-24T16:16:45.123Z,9.85
2022-09-24T16:19:12.534Z,8.23
2022-09-24T16:21:39.565Z,11.35
2022-09-24T16:24:06.820Z,5.95
2022-09-24T16:26:35.517Z,8.05
2022-09-24T16:29:03.285Z,7.95
2022-09-24T16:31:30.559Z,6.30
2022-09-24T16:33:57.441Z,10.07
2022-09-24T16:36:24.681Z,8.25
2022-09-24T16:38:51.931Z,7.28
2022-09-24T16:41:19.102Z,5.55
2022-09-24T16:43:45.952Z,9.82
2022-09-24T16:46:17.855Z,8.32
2022-09-24T16:48:49.346Z,7.10
2022-09-24T16:51:17.352Z,10.85
2022-09-24T16:53:48.774Z,11.07
2022-09-24T16:56:17.393Z,15.13
2022-09-24T16:58:45.952Z,12.90
2022-09-24T17:01:18.013Z,10.80
2022-09-24T17:03:50.039Z,9.93
2022-09-24T17:06:25.639Z,12.02
2022-09-24T17:09:11.966Z,9.10
2022-09-24T17:11:42.099Z,10.82
2022-09-24T17:14:12.470Z,14.27
2022-09-24T17:16:43.457Z,12.90
2022-09-24T17:19:11.819Z,11.20
2022-09-24T17:21:40.613Z,12.57
2022-09-24T17:24:07.839Z,8.75
2022-09-24T17:26:35.339Z,10.48
2022-09-24T17:29:02.142Z,11.68
2022-09-24T17:31:29.707Z,11.82
2022-09-24T17:34:05.414Z,9.13
2022-09-24T17:36:35.263Z,12.77
2022-09-24T17:39:02.742Z,11.27
2022-09-24T17:41:30.447Z,9.27
2022-09-24T17:44:00.561Z,6.75
2022-09-24T17:46:29.906Z,9.13
2022-09-24T17:48:59.466Z,9.95
2022-09-24T17:51:32.483Z,11.45
2022-09-24T17:54:01.744Z,10.75
2022-09-24T17:56:30.233Z,9.38
2022-09-24T17:58:57.092Z,11.50
2022-09-24T18:01:27.846Z,7.85
2022-09-24T18:03:56.804Z,9.30
2022-09-24T18:06:28.155Z,7.22
2022-09-24T18:08:57.936Z,11.18
2022-09-24T18:11:27.075Z,9.10
2022-09-24T18:13:55.591Z,11.15
2022-09-24T18:16:31.557Z,12.00
2022-09-24T18:19:00.705Z,9.05
2022-09-24T18:21:29.138Z,12.35
2022-09-24T18:23:57.258Z,8.05
2022-09-24T18:26:25.493Z,8.13
2022-09-24T18:28:54.032Z,7.78
2022-09-24T18:31:22.740Z,10.05
2022-09-24T18:33:50.765Z,9.85
2022-09-24T18:36:19.397Z,13.18
2022-09-24T18:38:46.503Z,14.00
2022-09-24T18:41:13.582Z,6.65
2022-09-24T18:43:41.628Z,10.82
2022-09-24T18:46:11.200Z,11.65
2022-09-24T18:48:39.521Z,7.85
2022-09-24T18:51:09.045Z,10.05
2022-09-24T18:53:36.446Z,11.88
2022-09-24T18:56:13.243Z,9.13
2022-09-24T18:58:40.136Z,13.35
2022-09-24T19:01:09.340Z,8.77
2022-09-24T19:03:39.524Z,9.52
2022-09-24T19:06:08.409Z,11.43
2022-09-24T19:08:36.097Z,10.25
2022-09-24T19:11:09.396Z,10.43
2022-09-24T19:13:38.553Z,15.27
2022-09-24T19:16:10.527Z,9.10
2022-09-24T19:18:37.896Z,9.45
2022-09-24T19:21:06.605Z,9.52
2022-09-24T19:23:37.557Z,9.75
2022-09-24T19:26:05.166Z,8.77
2022-09-24T19:28:32.497Z,11.18
2022-09-24T19:30:59.633Z,10.60
2022-09-24T19:33:26.806Z,11.35
2022-09-24T19:35:55.062Z,7.72
2022-09-24T19:38:29.728Z,10.02
2022-09-24T19:41:03.891Z,11.40
2022-09-24T19:43:33.518Z,10.07
2022-09-24T19:46:05.159Z,12.07
2022-09-24T19:48:33.145Z,10.60
2022-09-24T19:51:01.438Z,9.25
2022-09-24T19:53:31.502Z,12.48
2022-09-24T19:56:09.606Z,8.65
2022-09-24T19:58:36.811Z,12.43
2022-09-24T20:01:05.147Z,12.95
2022-09-24T20:03:33.013Z,14.20
2022-09-24T20:06:00.539Z,16.30
2022-09-24T20:08:27.931Z,10.60
2022-09-24T20:10:55.041Z,17.38
2022-09-24T20:13:24.624Z,18.13
2022-09-24T20:15:57.788Z,20.42
2022-09-24T20:18:25.602Z,16.80
2022-09-24T20:20:54.476Z,14.32
2022-09-24T20:23:22.536Z,15.90
2022-09-24T20:26:12.011Z,12.13
2022-09-24T20:28:39.515Z,14.98
2022-09-24T20:31:14.559Z,18.08
2022-09-24T20:33:44.595Z,17.95
2022-09-24T20:36:16.095Z,13.85
2022-09-24T20:38:45.940Z,17.00
2022-09-24T20:41:15.063Z,16.65
2022-09-24T20:43:46.001Z,17.85
2022-09-24T20:46:16.520Z,14.25
2022-09-24T20:48:43.743Z,15.15
2022-09-24T20:51:12.023Z,15.27
2022-09-24T20:53:39.190Z,14.32
2022-09-24T20:56:06.410Z,13.63
2022-09-24T20:58:34.086Z,11.73
2022-09-24T21:01:01.573Z,9.05
2022-09-24T21:03:43.856Z,11.30
2022-09-24T21:06:12.989Z,14.35
2022-09-24T21:08:41.378Z,15.07
2022-09-24T21:11:12.880Z,14.82
2022-09-24T21:13:41.848Z,14.48
2022-09-24T21:16:09.793Z,12.57
2022-09-24T21:18:40.696Z,14.25
2022-09-24T21:21:11.534Z,14.35
2022-09-24T21:23:40.015Z,15.10
2022-09-24T21:26:20.530Z,11.60
2022-09-24T21:28:48.716Z,12.32
2022-09-24T21:31:17.118Z,13.88
2022-09-24T21:33:48.574Z,13.55
2022-09-24T21:36:19.505Z,14.88
2022-09-24T21:38:59.610Z,13.30
2022-09-24T21:41:30.906Z,11.95
2022-09-24T21:43:58.201Z,11.45
2022-09-24T21:46:26.557Z,12.73
2022-09-24T21:48:54.061Z,13.35
2022-09-24T21:51:22.047Z,10.50
2022-09-24T21:53:52.874Z,10.63
2022-09-24T21:56:20.620Z,11.20
2022-09-24T21:58:48.259Z,10.45
2022-09-24T22:01:16.682Z,12.88
2022-09-24T22:03:45.404Z,10.32
2022-09-24T22:06:13.006Z,11.65
2022-09-24T22:08:40.386Z,7.95
2022-09-24T22:11:11.451Z,9.75
2022-09-24T22:13:40.496Z,9.75
2022-09-24T22:16:10.490Z,10.93
2022-09-24T22:18:38.283Z,13.77
2022-09-24T22:21:06.903Z,8.45
2022-09-24T22:23:34.306Z,12.77
2022-09-24T22:26:01.734Z,8.52
2022-09-24T22:28:29.219Z,11.93
2022-09-24T22:30:59.106Z,8.38
2022-09-24T22:33:45.813Z,8.32
2022-09-24T22:36:13.526Z,7.88
2022-09-24T22:38:40.957Z,7.70
2022-09-24T22:41:10.925Z,8.15
2022-09-24T22:43:38.988Z,8.23
2022-09-24T22:46:07.869Z,11.95
2022-09-24T22:48:37.805Z,8.00
2022-09-24T22:51:05.689Z,7.35
2022-09-24T22:53:39.930Z,8.68
2022-09-24T22:56:08.645Z,6.43
2022-09-24T22:58:36.459Z,6.40
2022-09-24T23:01:07.728Z,11.02
2022-09-24T23:03:35.461Z,7.07
2022-09-24T23:06:02.771Z,9.57
2022-09-24T23:08:35.855Z,9.05
2022-09-24T23:11:10.466Z,7.68
2022-09-24T23:13:38.322Z,8.43
2022-09-24T23:16:10.218Z,7.05
2022-09-24T23:18:37.704Z,9.40
2022-09-24T23:21:06.392Z,8.27
2022-09-24T23:23:33.859Z,9.30
2022-09-24T23:26:07.243Z,9.93
2022-09-24T23:28:35.513Z,8.63
2022-09-24T23:31:03.251Z,7.35
2022-09-24T23:33:31.389Z,8.48
2022-09-24T23:35:59.707Z,8.10
2022-09-24T23:38:27.372Z,7.13
2022-09-24T23:40:54.679Z,5.90
2022-09-24T23:43:22.022Z,9.25
2022-09-24T23:45:49.217Z,6.75
2022-09-24T23:48:16.682Z,8.63
2022-09-24T23:50:44.516Z,6.28
2022-09-24T23:53:12.334Z,5.38
2022-09-24T23:55:40.491Z,9.13
2022-09-24T23:58:07.672Z,6.18
